KID weather

Kristianstad Airport
Kristianstad, Skåne län, Sweden

Public forecast

Using degrees Celsius for public forecast. Weather courtesy of forecast.io.

Current aviation weather report (METAR) for Kristianstad Airport

Retrieved 2020/08/05 07:20 UTC (13 minutes ago):

ESMK 050720Z 20007KT CAVOK 18/11 Q1017

Aviation forecast (TAF) for Kristianstad Airport

Forecast is more than 12 hours old.

Retrieved 2020/07/19 09:15 UTC (17 days ago):

TAF TAF ESMK 190907Z 1909/1921 CNL